Time;durP1;ratioP1;P1;durP2;ratioP2;P2;SDS_P1;SDS_P2;PMS_P1;PMS_P2;Temp;Humidity;BMP_temperature;BMP_pressure;BME280_temperature;BME280_humidity;BME280_pressure;Samples;Min_cycle;Max_cycle;Signal;HPM_P1;HPM_P2
2021/05/28 00:01:47;;;;;;;6.47;2.60;;;;;;;7.35;100.00;100974.78;5112605;28;20119;-85
2021/05/28 00:04:12;;;;;;;6.63;2.60;;;;;;;7.37;100.00;100972.22;5112839;28;20028;-85
2021/05/28 00:06:37;;;;;;;8.25;2.90;;;;;;;7.38;100.00;100979.09;5112708;28;20027;-85
2021/05/28 00:09:05;;;;;;;8.80;2.83;;;;;;;7.38;100.00;100985.09;5095721;28;20031;-85
2021/05/28 00:11:30;;;;;;;10.20;3.25;;;;;;;7.45;100.00;100983.41;5097063;28;20019;-85
2021/05/28 00:13:55;;;;;;;7.80;2.90;;;;;;;7.49;100.00;100987.72;5095537;28;20387;-85
2021/05/28 00:16:20;;;;;;;7.70;3.10;;;;;;;7.50;100.00;100997.16;5095326;28;20039;-85
2021/05/28 00:18:46;;;;;;;8.05;3.08;;;;;;;7.48;100.00;100996.31;5112369;28;20024;-85
2021/05/28 00:21:11;;;;;;;11.13;3.65;;;;;;;7.54;100.00;101001.50;5112403;28;20031;-85
2021/05/28 00:23:36;;;;;;;11.15;3.40;;;;;;;7.60;100.00;101003.19;5096543;28;20039;-85
2021/05/28 00:26:02;;;;;;;13.00;4.13;;;;;;;7.54;100.00;100998.91;5095450;28;20020;-85
2021/05/28 00:28:27;;;;;;;11.07;3.58;;;;;;;7.48;100.00;101001.47;5112128;28;20024;-85
2021/05/28 00:30:53;;;;;;;11.82;3.60;;;;;;;7.53;100.00;101004.91;5112291;28;20024;-85
2021/05/28 00:33:18;;;;;;;11.52;3.80;;;;;;;7.47;100.00;101004.03;5095135;28;20107;-85
2021/05/28 00:35:43;;;;;;;16.10;4.28;;;;;;;7.46;100.00;101000.59;5095105;28;20383;-85
2021/05/28 00:38:08;;;;;;;19.23;4.53;;;;;;;7.42;100.00;101001.47;5094908;28;20073;-85
2021/05/28 00:40:34;;;;;;;11.23;3.45;;;;;;;7.37;100.00;100998.00;5096241;28;20024;-85
2021/05/28 00:42:59;;;;;;;11.63;3.70;;;;;;;7.37;100.00;101010.91;5112336;28;20082;-85
2021/05/28 00:45:25;;;;;;;15.00;3.80;;;;;;;7.26;100.00;101010.88;5094988;28;20026;-85
2021/05/28 00:47:50;;;;;;;14.23;3.85;;;;;;;7.24;100.00;101016.91;5094942;28;20024;-85
2021/05/28 00:50:15;;;;;;;12.80;3.90;;;;;;;7.17;100.00;101010.00;5111726;28;20020;-84
2021/05/28 00:52:41;;;;;;;8.82;4.03;;;;;;;7.12;100.00;101010.00;5111820;28;20028;-85
2021/05/28 00:55:07;;;;;;;18.30;4.13;;;;;;;7.04;100.00;101009.94;5095946;28;20047;-85
2021/05/28 00:57:36;;;;;;;12.50;3.83;;;;;;;7.01;100.00;101027.13;5094885;28;20097;-85
2021/05/28 01:00:04;;;;;;;13.40;4.32;;;;;;;7.07;100.00;101028.00;5095889;28;20031;-85
2021/05/28 01:02:29;;;;;;;11.45;4.65;;;;;;;7.09;100.00;101033.19;5094434;28;20024;-85
2021/05/28 01:04:55;;;;;;;12.35;4.45;;;;;;;7.06;100.00;101034.03;5111632;28;20498;-85
2021/05/28 01:07:20;;;;;;;12.75;4.28;;;;;;;7.04;100.00;101038.31;5111357;28;20483;-85
2021/05/28 01:09:47;;;;;;;12.20;4.43;;;;;;;6.96;100.00;101042.59;5111587;28;20391;-85
2021/05/28 01:12:12;;;;;;;12.57;4.50;;;;;;;6.90;100.00;101048.59;5094977;28;20460;-85
2021/05/28 01:14:38;;;;;;;11.75;3.85;;;;;;;6.89;100.00;101051.16;5095733;28;20107;-85
2021/05/28 01:17:03;;;;;;;17.52;4.53;;;;;;;6.91;100.00;101060.63;5095556;28;20035;-85
2021/05/28 01:19:29;;;;;;;12.70;4.07;;;;;;;6.92;100.00;101061.47;5095411;28;20024;-85
2021/05/28 01:21:57;;;;;;;13.10;4.20;;;;;;;6.90;100.00;101055.47;5111265;28;20070;-85
2021/05/28 01:24:23;;;;;;;11.90;3.90;;;;;;;6.87;100.00;101048.56;5095268;28;20093;-84
2021/05/28 01:26:48;;;;;;;11.68;3.97;;;;;;;6.85;100.00;101052.84;5094029;28;20063;-85
2021/05/28 01:29:15;;;;;;;13.13;4.53;;;;;;;6.80;100.00;101066.56;5095702;28;20028;-84
2021/05/28 01:31:40;;;;;;;13.32;4.35;;;;;;;6.78;100.00;101063.13;5094286;28;20419;-85
2021/05/28 01:34:06;;;;;;;12.68;4.10;;;;;;;6.78;100.00;101063.13;5095205;28;20073;-84
2021/05/28 01:36:31;;;;;;;12.43;4.25;;;;;;;6.69;100.00;101059.66;5095386;28;20020;-85
2021/05/28 01:38:56;;;;;;;10.77;3.92;;;;;;;6.77;100.00;101064.81;5095154;28;20123;-85
2021/05/28 01:41:27;;;;;;;18.42;4.47;;;;;;;6.73;100.00;101064.81;5093920;28;20058;-85
2021/05/28 01:43:53;;;;;;;11.10;4.10;;;;;;;6.74;100.00;101074.25;5093781;28;20024;-84
2021/05/28 01:46:18;;;;;;;13.07;4.45;;;;;;;6.74;100.00;101076.84;5110665;28;20122;-85
2021/05/28 01:48:43;;;;;;;19.63;4.50;;;;;;;6.67;100.00;101084.53;5110768;28;20020;-85
2021/05/28 01:51:08;;;;;;;15.25;4.38;;;;;;;6.67;100.00;101076.81;5093640;28;20056;-85
2021/05/28 01:53:34;;;;;;;11.63;4.43;;;;;;;6.58;100.00;101076.75;5110537;28;20046;-85
2021/05/28 01:55:59;;;;;;;11.88;4.32;;;;;;;6.57;100.00;101079.34;5094789;28;20099;-85
2021/05/28 01:58:26;;;;;;;14.55;4.22;;;;;;;6.54;100.00;101085.31;5110527;28;20032;-85
2021/05/28 02:00:55;;;;;;;12.23;4.30;;;;;;;6.57;100.00;101080.19;5093482;28;20024;-85
2021/05/28 02:03:20;;;;;;;15.13;4.53;;;;;;;6.45;100.00;101085.25;5093327;28;20024;-85
2021/05/28 02:05:46;;;;;;;12.35;3.90;;;;;;;6.47;100.00;101085.28;5093389;28;20072;-85
2021/05/28 02:08:12;;;;;;;18.42;4.63;;;;;;;6.40;100.00;101086.94;5094223;28;20028;-85
2021/05/28 02:10:37;;;;;;;11.10;4.20;;;;;;;6.40;100.00;101087.81;5092962;28;20028;-84
2021/05/28 02:13:03;;;;;;;10.90;4.45;;;;;;;6.37;100.00;101086.91;5093285;28;20054;-84
2021/05/28 02:15:28;;;;;;;8.88;4.15;;;;;;;6.38;100.00;101092.09;5110052;28;20024;-85
2021/05/28 02:17:54;;;;;;;10.27;4.03;;;;;;;6.35;100.00;101093.78;5110192;28;20073;-85
2021/05/28 02:20:21;;;;;;;13.05;4.47;;;;;;;6.36;100.00;101103.22;5093029;28;20123;-85
2021/05/28 02:22:47;;;;;;;12.63;4.32;;;;;;;6.31;100.00;101099.75;5092983;28;20210;-85
2021/05/28 02:25:15;;;;;;;12.00;4.25;;;;;;;6.32;100.00;101104.06;5094239;28;20024;-85
2021/05/28 02:27:42;;;;;;;17.27;4.28;;;;;;;6.26;100.00;101104.00;5094121;28;20019;-85
2021/05/28 02:30:08;;;;;;;13.40;3.80;;;;;;;6.23;100.00;101105.69;5094020;28;20483;-85
2021/05/28 02:32:33;;;;;;;10.27;3.53;;;;;;;6.19;100.00;101100.53;5094196;28;20028;-85
2021/05/28 02:34:59;;;;;;;11.02;4.25;;;;;;;6.14;100.00;101105.63;5092826;28;20467;-85
2021/05/28 02:37:24;;;;;;;10.75;3.67;;;;;;;6.14;100.00;101109.91;5092798;28;20039;-85
2021/05/28 02:39:50;;;;;;;11.77;4.00;;;;;;;6.14;100.00;101110.78;5092675;28;20027;-86
2021/05/28 02:42:15;;;;;;;11.43;4.30;;;;;;;6.16;100.00;101115.97;5109608;28;20020;-85
2021/05/28 02:44:41;;;;;;;13.98;4.10;;;;;;;6.14;100.00;101115.06;5109662;28;20031;-85
2021/05/28 02:47:06;;;;;;;10.40;3.80;;;;;;;6.08;100.00;101115.88;5093863;28;20057;-85
2021/05/28 02:49:32;;;;;;;10.13;3.72;;;;;;;6.07;100.00;101121.03;5109593;28;20031;-85
2021/05/28 02:51:57;;;;;;;12.50;3.83;;;;;;;6.07;100.00;101128.75;5092662;28;20027;-85
2021/05/28 02:54:24;;;;;;;12.68;4.45;;;;;;;6.08;100.00;101135.63;5092562;28;20019;-85
2021/05/28 02:56:50;;;;;;;24.23;3.70;;;;;;;6.06;100.00;101138.16;5092369;28;20020;-85
2021/05/28 02:59:15;;;;;;;7.72;3.45;;;;;;;6.03;100.00;101140.69;5109589;28;20115;-85
2021/05/28 03:01:40;;;;;;;13.25;4.20;;;;;;;6.11;100.00;101136.50;5093571;28;20471;-84
2021/05/28 03:04:06;;;;;;;10.05;3.30;;;;;;;6.15;100.00;101138.25;5109407;28;20027;-85
2021/05/28 03:06:31;;;;;;;10.45;3.47;;;;;;;6.20;100.00;101141.75;5092171;28;20028;-85
2021/05/28 03:08:57;;;;;;;11.68;3.53;;;;;;;6.26;100.00;101140.06;5093756;28;20038;-85
2021/05/28 03:11:23;;;;;;;11.93;3.50;;;;;;;6.27;100.00;101141.78;5109295;28;20019;-85
2021/05/28 03:13:48;;;;;;;9.38;3.25;;;;;;;6.26;100.00;101148.66;5092474;28;20039;-85
2021/05/28 03:16:14;;;;;;;9.32;3.72;;;;;;;6.31;100.00;101138.38;5092228;28;20051;-85
2021/05/28 03:19:16;;;;;;;10.38;3.70;;;;;;;6.36;100.00;101147.03;5093465;28;20020;-85
2021/05/28 03:23:58;;;;;;;8.77;3.10;;;;;;;6.41;100.00;101155.66;5093444;28;20115;-85
2021/05/28 03:26:25;;;;;;;13.27;3.75;;;;;;;6.51;100.00;101162.63;5092088;28;20043;-85
2021/05/28 03:28:51;;;;;;;9.38;3.05;;;;;;;6.60;100.00;101165.25;5092038;28;20020;-85
2021/05/28 03:31:17;;;;;;;11.40;3.67;;;;;;;6.68;100.00;101167.88;5092183;28;20115;-85
2021/05/28 03:33:43;;;;;;;13.40;3.15;;;;;;;6.77;100.00;101173.09;5092220;28;20550;-85
2021/05/28 03:36:08;;;;;;;7.93;2.88;;;;;;;6.84;100.00;101181.78;5093172;28;20028;-85
2021/05/28 03:38:34;;;;;;;10.48;3.10;;;;;;;6.91;100.00;101180.97;5109023;28;20016;-85
2021/05/28 03:40:59;;;;;;;10.15;3.20;;;;;;;6.91;100.00;101173.22;5093278;28;20032;-85
2021/05/28 03:43:25;;;;;;;9.00;2.83;;;;;;;6.97;100.00;101174.97;5091913;28;20070;-85
2021/05/28 03:45:50;;;;;;;9.50;3.03;;;;;;;6.99;100.00;101181.88;5093319;28;20448;-85
2021/05/28 03:48:16;;;;;;;13.70;3.22;;;;;;;7.04;100.00;101179.31;5091991;28;20023;-85
2021/05/28 03:50:41;;;;;;;11.60;3.35;;;;;;;7.04;100.00;101177.59;5108885;28;20475;-85
2021/05/28 03:53:06;;;;;;;9.25;3.47;;;;;;;7.10;100.00;101175.06;5093196;28;20031;-85
2021/05/28 03:55:32;;;;;;;14.43;3.45;;;;;;;7.11;100.00;101181.06;5093238;28;20430;-85
2021/05/28 03:57:57;;;;;;;11.30;3.42;;;;;;;7.19;100.00;101181.13;5093055;28;20028;-85
2021/05/28 04:00:24;;;;;;;6.97;3.17;;;;;;;7.34;100.00;101168.31;5093040;28;20024;-85
2021/05/28 04:02:49;;;;;;;7.40;2.88;;;;;;;7.42;100.00;101173.50;5108773;28;20082;-85
2021/05/28 04:05:15;;;;;;;10.50;3.17;;;;;;;7.49;100.00;101170.09;5108704;28;20024;-85
2021/05/28 04:07:41;;;;;;;9.05;3.15;;;;;;;7.60;100.00;101174.47;5092860;28;20042;-85
2021/05/28 04:10:06;;;;;;;10.45;3.10;;;;;;;7.72;100.00;101170.19;5091805;28;20027;-85
2021/05/28 04:12:32;;;;;;;8.02;3.10;;;;;;;7.77;100.00;101173.66;5092968;28;20016;-84
2021/05/28 04:14:57;;;;;;;9.23;3.25;;;;;;;7.85;100.00;101171.97;5093323;28;20479;-85
2021/05/28 04:17:22;;;;;;;9.60;3.42;;;;;;;7.95;100.00;101173.69;5108873;28;20035;-85
2021/05/28 04:19:47;;;;;;;9.25;3.65;;;;;;;7.89;100.00;101170.25;5091741;28;20104;-85
2021/05/28 04:22:13;;;;;;;12.93;3.22;;;;;;;7.90;100.00;101167.66;5092848;28;20055;-85
2021/05/28 04:24:38;;;;;;;8.43;3.40;;;;;;;7.82;100.00;101169.38;5091650;28;20016;-85
2021/05/28 04:27:04;;;;;;;10.18;3.75;;;;;;;7.84;100.00;101170.22;5092780;28;20023;-85
2021/05/28 04:29:29;;;;;;;9.85;3.45;;;;;;;7.94;100.00;101165.94;5092759;28;20031;-85
2021/05/28 04:31:54;;;;;;;12.23;3.92;;;;;;;7.94;100.00;101160.75;5092866;28;20016;-85
2021/05/28 04:34:20;;;;;;;13.35;3.92;;;;;;;7.98;100.00;101167.69;5094951;28;20103;-85
2021/05/28 04:36:45;;;;;;;10.00;4.10;;;;;;;8.20;100.00;101168.56;5095023;28;20028;-85
2021/05/28 04:39:10;;;;;;;10.88;4.13;;;;;;;8.39;100.00;101169.50;5096573;28;20119;-85
2021/05/28 04:41:36;;;;;;;13.90;4.55;;;;;;;8.49;100.00;101166.03;5095050;28;20455;-85
2021/05/28 04:44:01;;;;;;;12.40;4.80;;;;;;;8.56;100.00;101166.88;5112092;28;20478;-86
2021/05/28 04:46:27;;;;;;;15.50;4.82;;;;;;;8.49;100.00;101169.47;5112251;28;20047;-86
2021/05/28 04:48:52;;;;;;;15.95;6.28;;;;;;;8.57;100.00;101173.81;5112125;28;20404;-86
2021/05/28 04:51:17;;;;;;;21.52;5.85;;;;;;;8.58;100.00;101168.63;5111956;28;20055;-86
2021/05/28 04:53:43;;;;;;;15.00;5.70;;;;;;;8.63;100.00;101166.03;5112011;28;20031;-85
2021/05/28 04:56:08;;;;;;;15.48;5.65;;;;;;;8.68;100.00;101161.72;5094721;28;20028;-86
2021/05/28 04:58:33;;;;;;;17.23;6.22;;;;;;;8.63;100.00;101172.06;5111774;28;20544;-86
2021/05/28 05:00:59;;;;;;;19.88;6.25;;;;;;;8.59;100.00;101172.06;5096495;28;20024;-85
2021/05/28 05:03:24;;;;;;;16.05;6.20;;;;;;;8.64;100.00;101181.53;5094881;28;20032;-85
2021/05/28 05:05:49;;;;;;;16.15;6.25;;;;;;;8.51;100.00;101185.84;5111773;28;20536;-85
2021/05/28 05:08:14;;;;;;;18.15;6.00;;;;;;;8.39;100.00;101188.44;5111918;28;20032;-85
2021/05/28 05:10:40;;;;;;;15.07;5.95;;;;;;;8.51;100.00;101185.00;5111453;28;20024;-85
2021/05/28 05:15:33;;;;;;;20.25;6.22;;;;;;;8.51;100.00;101192.75;5118464;28;20043;-81
2021/05/28 05:17:58;;;;;;;16.33;5.90;;;;;;;8.63;100.00;101199.66;5121496;28;20038;-81
2021/05/28 05:20:23;;;;;;;14.57;5.90;;;;;;;8.65;100.00;101195.31;5122365;28;20034;-81
2021/05/28 05:22:48;;;;;;;13.77;5.70;;;;;;;8.59;100.00;101203.97;5122135;28;20386;-81
2021/05/28 05:25:14;;;;;;;15.30;6.43;;;;;;;8.51;100.00;101206.53;5102766;28;20478;-82
2021/05/28 05:27:39;;;;;;;15.90;6.10;;;;;;;8.55;100.00;101201.38;5121877;28;20034;-82
2021/05/28 05:30:05;;;;;;;23.02;6.22;;;;;;;8.58;100.00;101207.41;5103250;28;20030;-82
2021/05/28 05:32:30;;;;;;;17.05;5.97;;;;;;;8.61;100.00;101201.38;5102922;28;20024;-82
2021/05/28 05:34:56;;;;;;;18.67;6.45;;;;;;;8.57;100.00;101210.84;5121471;28;20035;-82
2021/05/28 05:37:21;;;;;;;12.50;6.50;;;;;;;8.43;100.00;101220.31;5102826;28;20028;-82
2021/05/28 05:39:48;;;;;;;15.65;6.75;;;;;;;8.40;100.00;101228.91;5120582;28;20066;-82
2021/05/28 05:42:13;;;;;;;11.02;5.95;;;;;;;8.38;100.00;101222.91;5122402;28;20039;-82
2021/05/28 05:44:39;;;;;;;15.48;6.05;;;;;;;8.34;100.00;101223.72;5102536;28;20059;-81
2021/05/28 05:47:04;;;;;;;10.32;5.82;;;;;;;8.27;100.00;101225.44;5122097;28;20080;-82
2021/05/28 05:49:29;;;;;;;13.15;6.20;;;;;;;8.37;100.00;101228.88;5118992;28;20047;-83
2021/05/28 05:51:54;;;;;;;14.63;6.57;;;;;;;8.31;100.00;101234.03;5119637;28;20068;-83
2021/05/28 05:54:20;;;;;;;13.75;6.32;;;;;;;8.40;100.00;101228.06;5101310;28;20467;-83
2021/05/28 05:56:45;;;;;;;12.68;6.38;;;;;;;8.31;100.00;101228.88;5100223;28;20039;-83
2021/05/28 05:59:10;;;;;;;10.15;6.10;;;;;;;8.33;100.00;101241.81;5100517;28;20024;-84
2021/05/28 06:01:36;;;;;;;11.68;6.05;;;;;;;8.22;100.00;101234.91;5099141;28;20024;-83
2021/05/28 06:04:01;;;;;;;10.70;5.80;;;;;;;8.24;100.00;101245.22;5121131;28;20126;-83
2021/05/28 06:06:27;;;;;;;12.18;5.07;;;;;;;8.07;100.00;101248.66;5122432;28;20034;-83
2021/05/28 06:08:53;;;;;;;12.18;6.05;;;;;;;8.06;100.00;101254.66;5121294;28;20500;-82
2021/05/28 06:11:18;;;;;;;14.40;6.88;;;;;;;8.05;100.00;101263.28;5120579;28;20058;-82
2021/05/28 06:13:44;;;;;;;11.27;6.25;;;;;;;8.07;100.00;101261.56;5120265;28;20028;-82
2021/05/28 06:16:09;;;;;;;10.45;5.10;;;;;;;8.20;100.00;101271.94;5121213;28;20485;-83
2021/05/28 06:18:35;;;;;;;11.52;5.57;;;;;;;8.13;100.00;101268.47;5119495;28;20083;-82
2021/05/28 06:21:00;;;;;;;10.35;5.65;;;;;;;8.20;100.00;101266.78;5102182;28;20055;-82
2021/05/28 06:23:25;;;;;;;11.98;5.97;;;;;;;8.21;100.00;101269.34;5121117;28;20016;-82
2021/05/28 06:25:51;;;;;;;14.13;6.75;;;;;;;8.13;100.00;101272.75;5101845;28;20411;-82
2021/05/28 06:28:16;;;;;;;13.45;6.43;;;;;;;8.06;100.00;101264.97;5119644;28;20083;-82
2021/05/28 06:30:42;;;;;;;16.02;6.40;;;;;;;8.02;100.00;101263.25;5119547;28;20025;-83
2021/05/28 06:33:08;;;;;;;15.95;7.55;;;;;;;8.19;100.00;101272.78;5119487;28;20031;-83
2021/05/28 06:35:36;;;;;;;13.73;6.93;;;;;;;8.19;100.00;101277.94;5118806;28;20034;-84
2021/05/28 06:38:02;;;;;;;12.80;7.20;;;;;;;8.13;100.00;101280.50;5100775;28;20046;-83
2021/05/28 06:40:28;;;;;;;12.13;6.43;;;;;;;8.27;100.00;101278.84;5119462;28;20035;-83
2021/05/28 06:42:53;;;;;;;12.02;6.45;;;;;;;8.51;100.00;101271.19;5102518;28;20072;-82
2021/05/28 06:45:19;;;;;;;13.50;7.13;;;;;;;8.57;100.00;101267.75;5119517;28;20088;-86
2021/05/28 06:47:47;;;;;;;18.02;7.53;;;;;;;8.53;100.00;101281.53;5102298;28;20024;-84
2021/05/28 06:50:14;;;;;;;13.27;6.78;;;;;;;8.39;100.00;101278.03;5122976;28;20030;-83
2021/05/28 06:52:40;;;;;;;13.32;6.88;;;;;;;8.41;100.00;101282.38;5121234;28;20467;-82
2021/05/28 06:55:06;;;;;;;15.27;7.18;;;;;;;8.28;100.00;101288.31;5104657;28;20023;-83
2021/05/28 06:57:32;;;;;;;16.75;6.75;;;;;;;8.39;100.00;101285.81;5121581;28;20031;-83
2021/05/28 06:59:59;;;;;;;17.77;7.00;;;;;;;8.51;100.00;101278.94;5106719;28;20026;-83
2021/05/28 07:02:24;;;;;;;13.50;7.13;;;;;;;8.42;100.00;101289.25;5139805;28;20042;-79
2021/05/28 07:04:49;;;;;;;15.98;7.18;;;;;;;8.48;100.00;101286.69;5133792;28;20091;-83
2021/05/28 07:07:15;;;;;;;12.52;6.63;;;;;;;8.46;100.00;101293.56;5103616;28;20030;-83
2021/05/28 07:09:40;;;;;;;13.30;7.07;;;;;;;8.43;100.00;101292.69;5116976;28;20077;-83
2021/05/28 07:12:05;;;;;;;15.27;8.18;;;;;;;8.34;100.00;101300.38;5115979;28;20030;-86
2021/05/28 07:14:31;;;;;;;19.30;8.27;;;;;;;8.31;100.00;101298.66;5098616;28;20545;-83
2021/05/28 07:16:56;;;;;;;16.60;7.80;;;;;;;8.29;100.00;101308.16;5100021;28;20034;-83
2021/05/28 07:19:21;;;;;;;20.70;7.65;;;;;;;8.16;100.00;101303.78;5117023;28;20028;-82
2021/05/28 07:21:47;;;;;;;14.23;6.88;;;;;;;8.18;100.00;101307.22;5116478;28;20048;-82
2021/05/28 07:24:13;;;;;;;14.75;6.50;;;;;;;8.28;100.00;101308.97;5116509;28;20098;-84
2021/05/28 07:26:38;;;;;;;11.73;6.18;;;;;;;8.28;100.00;101317.63;5098044;28;20072;-82
2021/05/28 07:29:04;;;;;;;13.27;6.65;;;;;;;8.53;100.00;101317.72;5099931;28;20024;-83
2021/05/28 07:31:29;;;;;;;14.05;5.90;;;;;;;8.46;100.00;101318.56;5100396;28;20015;-82
2021/05/28 07:33:55;;;;;;;11.88;5.40;;;;;;;8.53;100.00;101323.75;5098921;28;20114;-82
2021/05/28 07:36:22;;;;;;;12.32;5.63;;;;;;;8.47;100.00;101315.13;5118065;28;20076;-83
2021/05/28 07:38:47;;;;;;;12.15;5.30;;;;;;;8.47;100.00;101317.72;5099354;28;20449;-82
2021/05/28 07:41:13;;;;;;;11.90;5.88;;;;;;;8.56;100.00;101316.84;5117001;28;20023;-82
2021/05/28 07:43:38;;;;;;;13.18;5.90;;;;;;;8.64;100.00;101316.00;5098755;28;20023;-82
2021/05/28 07:46:04;;;;;;;14.40;6.28;;;;;;;8.60;100.00;101310.84;5099989;28;20387;-83
2021/05/28 07:48:29;;;;;;;14.02;6.25;;;;;;;8.72;100.00;101309.13;5117169;28;20023;-82
2021/05/28 07:50:58;;;;;;;16.35;6.78;;;;;;;8.93;100.00;101310.88;5099736;28;20028;-82
2021/05/28 07:53:24;;;;;;;17.42;6.80;;;;;;;9.12;100.00;101310.91;5118401;28;20019;-82
2021/05/28 07:55:51;;;;;;;11.40;6.40;;;;;;;8.96;100.00;101312.63;5100005;28;20102;-82
2021/05/28 07:58:17;;;;;;;16.50;6.75;;;;;;;9.43;100.00;101319.50;5100852;28;20051;-82
2021/05/28 08:00:42;;;;;;;16.38;6.88;;;;;;;9.49;100.00;101314.31;5118050;28;20049;-82
2021/05/28 08:03:13;;;;;;;16.17;6.68;;;;;;;9.52;100.00;101314.31;5117801;28;20024;-81
2021/05/28 08:05:40;;;;;;;19.63;7.15;;;;;;;9.76;100.00;101312.50;5117680;28;20031;-82
2021/05/28 08:08:09;;;;;;;13.60;6.85;;;;;;;10.00;100.00;101319.34;5118994;28;20039;-82
2021/05/28 08:10:34;;;;;;;14.35;6.82;;;;;;;11.52;96.98;101308.84;5103373;28;20028;-82
2021/05/28 08:12:59;;;;;;;17.25;7.00;;;;;;;10.47;99.88;101308.81;5103586;28;20062;-81
2021/05/28 08:15:25;;;;;;;14.50;6.60;;;;;;;10.46;100.00;101311.38;5103136;28;20058;-82
2021/05/28 08:17:50;;;;;;;14.63;6.43;;;;;;;10.97;100.00;101314.53;5103346;28;20082;-82
2021/05/28 08:20:16;;;;;;;21.63;6.95;;;;;;;11.85;97.30;101309.38;5104364;28;20020;-82
2021/05/28 08:22:43;;;;;;;13.23;6.28;;;;;;;11.82;95.42;101311.97;5103679;28;20027;-82
2021/05/28 08:25:09;;;;;;;13.85;6.28;;;;;;;11.90;95.69;101305.00;5122147;28;20402;-83
2021/05/28 08:27:34;;;;;;;14.32;5.78;;;;;;;11.55;96.70;101310.56;5122746;28;20023;-83
2021/05/28 08:29:59;;;;;;;20.00;6.53;;;;;;;11.75;94.57;101308.59;5103141;28;20030;-82
2021/05/28 08:32:25;;;;;;;18.63;5.90;;;;;;;12.40;89.91;101316.50;5121347;28;20011;-82
2021/05/28 08:34:53;;;;;;;14.70;6.75;;;;;;;11.73;95.17;101316.41;5103603;28;20097;-82
2021/05/28 08:37:18;;;;;;;16.95;6.00;;;;;;;11.49;97.99;101319.25;5103325;28;20111;-83
2021/05/28 08:39:44;;;;;;;16.23;5.30;;;;;;;12.09;93.36;101324.69;5102637;28;20129;-82
2021/05/28 08:42:10;;;;;;;13.05;5.93;;;;;;;11.83;94.54;101326.72;5102188;28;20057;-82
2021/05/28 08:44:36;;;;;;;17.58;6.30;;;;;;;11.45;97.23;101325.34;5102267;28;20020;-82
2021/05/28 08:47:03;;;;;;;13.48;5.50;;;;;;;10.98;97.32;101326.63;5120169;28;20024;-81
2021/05/28 08:49:28;;;;;;;13.18;5.82;;;;;;;10.98;99.80;101322.28;5119378;28;20031;-81
2021/05/28 08:51:56;;;;;;;14.98;6.40;;;;;;;11.39;98.47;101322.81;5101911;28;20016;-81
2021/05/28 08:54:21;;;;;;;16.35;5.75;;;;;;;11.17;98.96;101325.59;5100961;28;20409;-81
2021/05/28 08:56:48;;;;;;;17.92;5.80;;;;;;;10.99;100.00;101323.13;5119945;28;20031;-81
2021/05/28 08:59:14;;;;;;;15.13;5.43;;;;;;;10.68;99.62;101320.75;5119260;28;20449;-81
2021/05/28 09:01:39;;;;;;;19.23;6.00;;;;;;;10.41;100.00;101324.41;5100736;28;20053;-81
2021/05/28 09:04:05;;;;;;;17.02;6.38;;;;;;;10.45;100.00;101325.25;5119675;28;20027;-81
2021/05/28 09:06:44;;;;;;;14.32;6.18;;;;;;;10.59;100.00;101326.00;5120013;28;20053;-81
2021/05/28 09:09:18;;;;;;;16.08;6.40;;;;;;;10.80;100.00;101328.47;5102674;28;20023;-82
2021/05/28 09:11:54;;;;;;;15.90;6.75;;;;;;;10.65;100.00;101328.56;5103375;28;20085;-82
2021/05/28 09:14:40;;;;;;;17.00;6.45;;;;;;;10.17;100.00;101327.06;5100256;28;20031;-82
2021/05/28 09:17:11;;;;;;;15.32;6.05;;;;;;;10.60;100.00;101330.34;5099598;28;20403;-82
2021/05/28 09:19:39;;;;;;;14.30;6.00;;;;;;;11.13;100.00;101326.50;5102200;28;20092;-82
2021/05/28 09:22:07;;;;;;;13.73;6.63;;;;;;;11.19;100.00;101328.19;5102180;28;20016;-82
2021/05/28 09:24:38;;;;;;;17.10;6.38;;;;;;;11.33;99.45;101323.75;5102048;28;20027;-82
2021/05/28 09:27:24;;;;;;;11.90;6.20;;;;;;;10.97;100.00;101325.75;5102094;28;20058;-82
2021/05/28 09:30:09;;;;;;;14.13;6.50;;;;;;;11.09;100.00;101324.81;5103258;28;20493;-82
2021/05/28 09:32:37;;;;;;;14.93;5.53;;;;;;;10.99;100.00;101328.34;5140566;28;20020;-81
2021/05/28 09:35:04;;;;;;;13.20;6.30;;;;;;;10.77;100.00;101328.47;5110878;28;20034;-81
2021/05/28 09:37:41;;;;;;;17.40;6.25;;;;;;;11.15;100.00;101327.34;5099933;28;20016;-82
2021/05/28 09:40:11;;;;;;;14.18;6.00;;;;;;;11.34;100.00;101332.41;5118572;28;20024;-81
2021/05/28 09:42:49;;;;;;;16.10;6.20;;;;;;;10.96;100.00;101320.56;5099103;28;20092;-81
2021/05/28 09:45:21;;;;;;;14.85;6.35;;;;;;;10.94;100.00;101335.31;5116567;28;20027;-81
2021/05/28 09:47:46;;;;;;;17.02;5.93;;;;;;;11.35;100.00;101332.38;5098801;28;20019;-81
2021/05/28 09:50:16;;;;;;;16.05;5.85;;;;;;;11.24;100.00;101340.25;5098408;28;20034;-81
2021/05/28 09:52:41;;;;;;;10.70;5.68;;;;;;;11.19;100.00;101347.22;5098782;28;20019;-83
2021/05/28 09:55:09;;;;;;;14.98;6.10;;;;;;;11.26;100.00;101346.28;5098978;28;20114;-82
2021/05/28 09:57:42;;;;;;;12.27;5.10;;;;;;;11.60;97.92;101340.78;5099095;28;20028;-81
2021/05/28 10:00:32;;;;;;;13.70;5.50;;;;;;;12.02;94.97;101341.25;5099299;28;20039;-81
2021/05/28 10:03:16;;;;;;;13.15;4.82;;;;;;;13.41;87.26;101338.38;5088602;28;20486;-81
2021/05/28 10:05:59;;;;;;;11.40;4.43;;;;;;;14.07;82.22;101341.50;5117136;28;20479;-81
2021/05/28 10:08:26;;;;;;;11.93;4.60;;;;;;;16.49;72.83;101338.09;5099243;28;20015;-81
2021/05/28 10:10:54;;;;;;;10.95;4.13;;;;;;;14.14;78.05;101336.16;5099371;28;20390;-81
2021/05/28 10:13:21;;;;;;;15.55;4.50;;;;;;;12.92;85.44;101339.16;5099860;28;20030;-81
2021/05/28 10:15:52;;;;;;;11.98;4.15;;;;;;;12.80;87.81;101341.94;5099322;28;20019;-81
2021/05/28 10:18:18;;;;;;;16.40;4.50;;;;;;;13.27;86.51;101345.56;5099464;28;20049;-81
2021/05/28 10:20:47;;;;;;;14.90;4.70;;;;;;;13.37;84.55;101341.94;5099960;28;20384;-81
2021/05/28 10:23:13;;;;;;;14.95;5.30;;;;;;;13.05;86.33;101340.72;5117794;28;20101;-81
2021/05/28 10:25:39;;;;;;;11.57;4.70;;;;;;;12.83;86.49;101340.16;5099292;28;20050;-81
2021/05/28 10:28:07;;;;;;;12.13;4.40;;;;;;;12.50;86.94;101351.94;5098900;28;20019;-81
2021/05/28 10:30:38;;;;;;;14.73;5.05;;;;;;;12.66;87.39;101348.22;5099039;28;20020;-81
2021/05/28 10:33:27;;;;;;;10.95;4.07;;;;;;;13.59;81.50;101340.66;5098997;28;20039;-81
2021/05/28 10:35:57;;;;;;;11.13;3.50;;;;;;;12.92;83.34;101341.75;5099443;28;20024;-81
2021/05/28 10:38:29;;;;;;;14.93;5.03;;;;;;;12.66;84.78;101348.22;5099306;28;20043;-81
2021/05/28 10:40:55;;;;;;;12.32;4.43;;;;;;;12.64;85.08;101352.59;5098999;28;20024;-81
2021/05/28 10:43:20;;;;;;;14.65;4.80;;;;;;;12.94;86.45;101340.00;5099018;28;20034;-81
2021/05/28 10:46:00;;;;;;;15.23;4.43;;;;;;;13.29;84.45;101336.00;5099141;28;20020;-82
2021/05/28 10:48:38;;;;;;;12.35;4.43;;;;;;;14.39;79.94;101335.63;5098741;28;20024;-81
2021/05/28 10:51:16;;;;;;;9.48;4.20;;;;;;;13.92;82.37;101327.91;5117801;28;20387;-81
2021/05/28 10:54:01;;;;;;;11.82;4.47;;;;;;;13.57;83.71;101326.78;5098574;28;20041;-81
2021/05/28 10:56:35;;;;;;;11.40;4.38;;;;;;;13.10;86.92;101330.19;5116889;28;20102;-81
2021/05/28 10:59:03;;;;;;;12.13;4.00;;;;;;;12.77;88.03;101327.22;5117707;28;20028;-81
2021/05/28 11:01:34;;;;;;;15.32;5.75;;;;;;;12.72;89.28;101336.88;5098819;28;20394;-81
2021/05/28 11:04:07;;;;;;;13.02;4.70;;;;;;;12.86;87.64;101326.25;5098932;28;20471;-81
2021/05/28 11:06:59;;;;;;;15.80;5.82;;;;;;;12.87;86.75;101323.63;5098913;28;20032;-81
2021/05/28 11:09:50;;;;;;;12.50;5.05;;;;;;;13.10;86.91;101332.81;5098906;28;20031;-81
2021/05/28 11:12:25;;;;;;;11.63;4.57;;;;;;;13.43;86.48;101331.41;5098573;28;20020;-81
2021/05/28 11:15:13;;;;;;;15.77;5.40;;;;;;;13.40;86.33;101328.00;5098327;28;20035;-82
2021/05/28 11:17:59;;;;;;;10.40;4.20;;;;;;;13.89;85.19;101321.88;5116852;28;20038;-82
2021/05/28 11:20:30;;;;;;;15.02;4.03;;;;;;;13.69;83.29;101323.09;5117550;28;20023;-82
2021/05/28 11:22:57;;;;;;;12.18;4.10;;;;;;;13.74;82.92;101318.69;5100481;28;20051;-82